sensor_id;sensor_type;location;lat;lon;timestamp;temperature;humidity
13320;DHT22;59599;47.608;12.190;2022-07-01T04:01:41;18.10;99.90
13320;DHT22;59599;47.608;12.190;2022-07-01T04:06:33;18.00;99.90
13320;DHT22;59599;47.608;12.190;2022-07-01T04:08:59;18.00;99.90
13320;DHT22;59599;47.608;12.190;2022-07-01T04:11:24;17.90;99.90
13320;DHT22;59599;47.608;12.190;2022-07-01T04:16:17;17.90;99.90
13320;DHT22;59599;47.608;12.190;2022-07-01T04:18:43;17.80;99.90
13320;DHT22;59599;47.608;12.190;2022-07-01T04:21:08;17.90;99.90
13320;DHT22;59599;47.608;12.190;2022-07-01T04:23:52;17.90;99.90
13320;DHT22;59599;47.608;12.190;2022-07-01T04:36:02;17.80;99.90
13320;DHT22;59599;47.608;12.190;2022-07-01T04:38:28;17.90;99.90
13320;DHT22;59599;47.608;12.190;2022-07-01T04:40:53;17.90;99.90
13320;DHT22;59599;47.608;12.190;2022-07-01T04:43:37;17.90;99.90
13320;DHT22;59599;47.608;12.190;2022-07-01T04:46:03;17.80;99.90
13320;DHT22;59599;47.608;12.190;2022-07-01T04:50:54;17.90;99.90
13320;DHT22;59599;47.608;12.190;2022-07-01T04:53:20;17.80;99.90
13320;DHT22;59599;47.608;12.190;2022-07-01T04:58:12;17.90;99.90
13320;DHT22;59599;47.608;12.190;2022-07-01T05:00:38;18.00;99.90
13320;DHT22;59599;47.608;12.190;2022-07-01T05:03:04;18.10;99.90
13320;DHT22;59599;47.608;12.190;2022-07-01T05:05:29;18.10;99.90
13320;DHT22;59599;47.608;12.190;2022-07-01T05:10:21;18.10;99.90
13320;DHT22;59599;47.608;12.190;2022-07-01T05:12:46;18.20;99.90
13320;DHT22;59599;47.608;12.190;2022-07-01T05:17:38;18.40;99.90
13320;DHT22;59599;47.608;12.190;2022-07-01T05:20:22;18.50;99.90
13320;DHT22;59599;47.608;12.190;2022-07-01T05:23:06;18.60;99.90
13320;DHT22;59599;47.608;12.190;2022-07-01T05:30:23;18.70;99.90
13320;DHT22;59599;47.608;12.190;2022-07-01T05:32:49;18.70;99.90
13320;DHT22;59599;47.608;12.190;2022-07-01T05:35:14;18.70;99.90
13320;DHT22;59599;47.608;12.190;2022-07-01T05:37:41;18.80;99.90
13320;DHT22;59599;47.608;12.190;2022-07-01T05:40:07;18.80;99.90
13320;DHT22;59599;47.608;12.190;2022-07-01T05:42:33;19.00;99.90
13320;DHT22;59599;47.608;12.190;2022-07-01T05:44:58;19.20;99.90
13320;DHT22;59599;47.608;12.190;2022-07-01T05:49:50;19.40;99.90
13320;DHT22;59599;47.608;12.190;2022-07-01T05:54:41;19.60;99.90
13320;DHT22;59599;47.608;12.190;2022-07-01T05:57:07;19.70;99.90
13320;DHT22;59599;47.608;12.190;2022-07-01T05:59:33;19.70;99.90
13320;DHT22;59599;47.608;12.190;2022-07-01T06:01:58;19.60;99.90
13320;DHT22;59599;47.608;12.190;2022-07-01T06:04:24;19.60;99.90
13320;DHT22;59599;47.608;12.190;2022-07-01T06:06:49;19.70;99.90
13320;DHT22;59599;47.608;12.190;2022-07-01T06:18:59;20.20;99.90
13320;DHT22;59599;47.608;12.190;2022-07-01T06:28:43;20.60;99.90
13320;DHT22;59599;47.608;12.190;2022-07-01T06:33:34;20.70;99.90
13320;DHT22;59599;47.608;12.190;2022-07-01T06:36:00;20.70;99.90
13320;DHT22;59599;47.608;12.190;2022-07-01T06:38:26;20.80;99.90
13320;DHT22;59599;47.608;12.190;2022-07-01T06:40:51;20.90;99.90
13320;DHT22;59599;47.608;12.190;2022-07-01T06:46:02;21.10;99.90
13320;DHT22;59599;47.608;12.190;2022-07-01T07:03:03;21.40;99.90
13320;DHT22;59599;47.608;12.190;2022-07-01T07:05:29;21.50;99.90
13320;DHT22;59599;47.608;12.190;2022-07-01T07:07:58;21.50;99.90
13320;DHT22;59599;47.608;12.190;2022-07-01T07:10:24;21.60;99.90
13320;DHT22;59599;47.608;12.190;2022-07-01T07:12:49;21.50;99.90
13320;DHT22;59599;47.608;12.190;2022-07-01T07:15:16;21.50;99.90
13320;DHT22;59599;47.608;12.190;2022-07-01T07:17:42;21.50;99.90
13320;DHT22;59599;47.608;12.190;2022-07-01T07:20:08;21.50;99.90
13320;DHT22;59599;47.608;12.190;2022-07-01T07:22:33;21.60;99.90
13320;DHT22;59599;47.608;12.190;2022-07-01T07:24:59;21.70;99.90
13320;DHT22;59599;47.608;12.190;2022-07-01T07:27:25;21.70;99.90
13320;DHT22;59599;47.608;12.190;2022-07-01T07:32:16;22.20;99.90
13320;DHT22;59599;47.608;12.190;2022-07-01T07:34:42;22.30;99.90
13320;DHT22;59599;47.608;12.190;2022-07-01T07:37:07;22.30;99.90
13320;DHT22;59599;47.608;12.190;2022-07-01T07:41:59;22.40;99.90
13320;DHT22;59599;47.608;12.190;2022-07-01T07:49:17;22.60;99.90
13320;DHT22;59599;47.608;12.190;2022-07-01T07:51:42;22.50;99.90
13320;DHT22;59599;47.608;12.190;2022-07-01T07:56:34;22.60;99.90
13320;DHT22;59599;47.608;12.190;2022-07-01T08:11:10;22.90;99.90
13320;DHT22;59599;47.608;12.190;2022-07-01T08:13:36;23.00;99.90
13320;DHT22;59599;47.608;12.190;2022-07-01T08:18:29;23.00;99.90
13320;DHT22;59599;47.608;12.190;2022-07-01T08:20:55;23.10;99.90
13320;DHT22;59599;47.608;12.190;2022-07-01T08:23:21;23.20;99.90
13320;DHT22;59599;47.608;12.190;2022-07-01T08:25:48;23.30;99.90
13320;DHT22;59599;47.608;12.190;2022-07-01T08:28:14;23.30;99.90
13320;DHT22;59599;47.608;12.190;2022-07-01T08:30:39;23.30;99.90
13320;DHT22;59599;47.608;12.190;2022-07-01T08:35:31;23.40;99.90
13320;DHT22;59599;47.608;12.190;2022-07-01T08:40:27;23.30;99.90
13320;DHT22;59599;47.608;12.190;2022-07-01T08:43:03;23.30;99.90
13320;DHT22;59599;47.608;12.190;2022-07-01T08:45:31;23.10;99.90
13320;DHT22;59599;47.608;12.190;2022-07-01T08:47:58;23.30;99.90
13320;DHT22;59599;47.608;12.190;2022-07-01T08:50:27;23.20;99.90
13320;DHT22;59599;47.608;12.190;2022-07-01T08:55:20;23.00;99.90
13320;DHT22;59599;47.608;12.190;2022-07-01T08:57:46;22.90;99.90
13320;DHT22;59599;47.608;12.190;2022-07-01T09:05:23;22.60;99.90
13320;DHT22;59599;47.608;12.190;2022-07-01T09:07:56;22.40;99.90
13320;DHT22;59599;47.608;12.190;2022-07-01T09:10:23;22.30;99.90
13320;DHT22;59599;47.608;12.190;2022-07-01T09:12:48;22.20;99.90
13320;DHT22;59599;47.608;12.190;2022-07-01T09:15:31;22.10;99.90
13320;DHT22;59599;47.608;12.190;2022-07-01T09:18:06;22.00;99.90
13320;DHT22;59599;47.608;12.190;2022-07-01T09:20:37;21.90;99.90
13320;DHT22;59599;47.608;12.190;2022-07-01T09:23:11;21.70;99.90
13320;DHT22;59599;47.608;12.190;2022-07-01T09:28:05;21.60;99.90
13320;DHT22;59599;47.608;12.190;2022-07-01T09:30:30;21.50;99.90
13320;DHT22;59599;47.608;12.190;2022-07-01T09:33:27;21.50;99.90
13320;DHT22;59599;47.608;12.190;2022-07-01T09:38:23;21.40;99.90
13320;DHT22;59599;47.608;12.190;2022-07-01T09:40:57;21.40;99.90
13320;DHT22;59599;47.608;12.190;2022-07-01T09:43:34;21.40;99.90
13320;DHT22;59599;47.608;12.190;2022-07-01T09:46:03;21.40;99.90
13320;DHT22;59599;47.608;12.190;2022-07-01T09:55:52;21.00;99.90
13320;DHT22;59599;47.608;12.190;2022-07-01T09:58:17;20.60;99.90
13320;DHT22;59599;47.608;12.190;2022-07-01T10:00:44;20.20;99.90
13320;DHT22;59599;47.608;12.190;2022-07-01T10:03:10;19.80;99.90
13320;DHT22;59599;47.608;12.190;2022-07-01T10:05:49;19.50;99.90
13320;DHT22;59599;47.608;12.190;2022-07-01T10:14:21;18.50;99.90
13320;DHT22;59599;47.608;12.190;2022-07-01T10:24:13;18.30;99.90
13320;DHT22;59599;47.608;12.190;2022-07-01T10:26:39;18.20;99.90
13320;DHT22;59599;47.608;12.190;2022-07-01T10:29:05;18.10;99.90
13320;DHT22;59599;47.608;12.190;2022-07-01T10:31:37;18.00;99.90
13320;DHT22;59599;47.608;12.190;2022-07-01T10:34:04;17.90;99.90
13320;DHT22;59599;47.608;12.190;2022-07-01T10:36:34;18.00;99.90
13320;DHT22;59599;47.608;12.190;2022-07-01T10:41:36;17.90;99.90
13320;DHT22;59599;47.608;12.190;2022-07-01T10:44:05;17.80;99.90
13320;DHT22;59599;47.608;12.190;2022-07-01T10:46:46;17.90;99.90
13320;DHT22;59599;47.608;12.190;2022-07-01T10:51:49;17.80;99.90
13320;DHT22;59599;47.608;12.190;2022-07-01T11:02:19;17.70;99.90
13320;DHT22;59599;47.608;12.190;2022-07-01T11:04:45;17.50;99.90
13320;DHT22;59599;47.608;12.190;2022-07-01T11:07:11;17.50;99.90
13320;DHT22;59599;47.608;12.190;2022-07-01T11:09:37;17.60;99.90
13320;DHT22;59599;47.608;12.190;2022-07-01T11:12:04;17.50;99.90
13320;DHT22;59599;47.608;12.190;2022-07-01T11:14:37;17.60;99.90
13320;DHT22;59599;47.608;12.190;2022-07-01T11:17:04;17.50;99.90
13320;DHT22;59599;47.608;12.190;2022-07-01T11:24:23;17.30;99.90
13320;DHT22;59599;47.608;12.190;2022-07-01T11:26:49;17.30;99.90
13320;DHT22;59599;47.608;12.190;2022-07-01T11:29:27;17.30;99.90
13320;DHT22;59599;47.608;12.190;2022-07-01T11:34:19;17.30;99.90
13320;DHT22;59599;47.608;12.190;2022-07-01T11:36:46;17.30;99.90
13320;DHT22;59599;47.608;12.190;2022-07-01T11:39:31;17.30;99.90
13320;DHT22;59599;47.608;12.190;2022-07-01T11:42:03;17.40;99.90
13320;DHT22;59599;47.608;12.190;2022-07-01T11:44:44;17.40;99.90
13320;DHT22;59599;47.608;12.190;2022-07-01T11:47:22;17.40;99.90
13320;DHT22;59599;47.608;12.190;2022-07-01T11:49:48;17.40;99.90
13320;DHT22;59599;47.608;12.190;2022-07-01T11:52:15;17.50;99.90
13320;DHT22;59599;47.608;12.190;2022-07-01T11:54:44;17.50;99.90
13320;DHT22;59599;47.608;12.190;2022-07-01T11:57:15;17.60;99.90
13320;DHT22;59599;47.608;12.190;2022-07-01T11:59:45;17.60;99.90
13320;DHT22;59599;47.608;12.190;2022-07-01T12:02:12;17.60;99.90
13320;DHT22;59599;47.608;12.190;2022-07-01T12:07:06;17.50;99.90
13320;DHT22;59599;47.608;12.190;2022-07-01T12:14:26;17.60;99.90
13320;DHT22;59599;47.608;12.190;2022-07-01T12:16:54;17.50;99.90
13320;DHT22;59599;47.608;12.190;2022-07-01T12:19:30;17.40;99.90
13320;DHT22;59599;47.608;12.190;2022-07-01T12:22:06;17.40;99.90
13320;DHT22;59599;47.608;12.190;2022-07-01T12:24:33;17.40;99.90
13320;DHT22;59599;47.608;12.190;2022-07-01T12:29:27;17.30;99.90
13320;DHT22;59599;47.608;12.190;2022-07-01T12:32:04;17.30;99.90
13320;DHT22;59599;47.608;12.190;2022-07-01T12:34:44;17.30;99.90
13320;DHT22;59599;47.608;12.190;2022-07-01T12:37:13;17.20;99.90
13320;DHT22;59599;47.608;12.190;2022-07-01T12:39:46;17.30;99.90
13320;DHT22;59599;47.608;12.190;2022-07-01T12:44:59;17.30;99.90
13320;DHT22;59599;47.608;12.190;2022-07-01T12:47:33;17.10;99.90
13320;DHT22;59599;47.608;12.190;2022-07-01T12:50:19;17.10;99.90
13320;DHT22;59599;47.608;12.190;2022-07-01T12:55:23;16.90;99.90
13320;DHT22;59599;47.608;12.190;2022-07-01T12:57:50;16.80;99.90
13320;DHT22;59599;47.608;12.190;2022-07-01T13:00:17;16.80;99.90
13320;DHT22;59599;47.608;12.190;2022-07-01T13:02:42;16.80;99.90
13320;DHT22;59599;47.608;12.190;2022-07-01T13:05:08;16.80;99.90
13320;DHT22;59599;47.608;12.190;2022-07-01T13:07:34;16.80;99.90
13320;DHT22;59599;47.608;12.190;2022-07-01T13:14:51;16.60;99.90
13320;DHT22;59599;47.608;12.190;2022-07-01T13:17:17;16.70;99.90
13320;DHT22;59599;47.608;12.190;2022-07-01T13:19:42;16.70;99.90
13320;DHT22;59599;47.608;12.190;2022-07-01T13:29:26;16.80;99.90
13320;DHT22;59599;47.608;12.190;2022-07-01T13:41:35;16.80;99.90
13320;DHT22;59599;47.608;12.190;2022-07-01T13:44:01;16.90;99.90
13320;DHT22;59599;47.608;12.190;2022-07-01T13:46:27;16.90;99.90
13320;DHT22;59599;47.608;12.190;2022-07-01T13:48:52;16.90;99.90
13320;DHT22;59599;47.608;12.190;2022-07-01T13:53:44;17.10;99.90
13320;DHT22;59599;47.608;12.190;2022-07-01T13:56:09;17.20;99.90
13320;DHT22;59599;47.608;12.190;2022-07-01T13:58:35;17.20;99.90
13320;DHT22;59599;47.608;12.190;2022-07-01T14:03:27;17.20;99.90
13320;DHT22;59599;47.608;12.190;2022-07-01T14:08:18;17.20;99.90
13320;DHT22;59599;47.608;12.190;2022-07-01T14:13:33;17.40;99.90
13320;DHT22;59599;47.608;12.190;2022-07-01T14:23:21;17.30;99.90
13320;DHT22;59599;47.608;12.190;2022-07-01T14:25:46;17.30;99.90
13320;DHT22;59599;47.608;12.190;2022-07-01T14:30:38;17.50;99.90
13320;DHT22;59599;47.608;12.190;2022-07-01T14:33:04;17.50;99.90
13320;DHT22;59599;47.608;12.190;2022-07-01T14:37:57;17.50;99.90
13320;DHT22;59599;47.608;12.190;2022-07-01T14:47:41;17.30;99.90
13320;DHT22;59599;47.608;12.190;2022-07-01T14:50:08;17.20;99.90
13320;DHT22;59599;47.608;12.190;2022-07-01T14:52:34;17.30;99.90
13320;DHT22;59599;47.608;12.190;2022-07-01T14:55:00;17.30;99.90
13320;DHT22;59599;47.608;12.190;2022-07-01T14:57:25;17.30;99.90
13320;DHT22;59599;47.608;12.190;2022-07-01T14:59:51;17.20;99.90
13320;DHT22;59599;47.608;12.190;2022-07-01T15:02:17;17.20;99.90
13320;DHT22;59599;47.608;12.190;2022-07-01T15:04:43;17.10;99.90
13320;DHT22;59599;47.608;12.190;2022-07-01T15:09:35;17.30;99.90
13320;DHT22;59599;47.608;12.190;2022-07-01T15:16:54;17.40;99.90
13320;DHT22;59599;47.608;12.190;2022-07-01T15:21:46;17.40;99.90
13320;DHT22;59599;47.608;12.190;2022-07-01T15:24:12;17.30;99.90
13320;DHT22;59599;47.608;12.190;2022-07-01T15:26:37;17.20;99.90
13320;DHT22;59599;47.608;12.190;2022-07-01T15:38:47;17.10;99.90
13320;DHT22;59599;47.608;12.190;2022-07-01T15:41:12;17.20;99.90
13320;DHT22;59599;47.608;12.190;2022-07-01T15:46:06;17.10;99.90
13320;DHT22;59599;47.608;12.190;2022-07-01T15:50:58;17.00;99.90
13320;DHT22;59599;47.608;12.190;2022-07-01T15:53:24;17.00;99.90
13320;DHT22;59599;47.608;12.190;2022-07-01T15:55:50;17.10;99.90
13320;DHT22;59599;47.608;12.190;2022-07-01T15:58:17;17.10;99.90
13320;DHT22;59599;47.608;12.190;2022-07-01T16:00:46;17.00;99.90
13320;DHT22;59599;47.608;12.190;2022-07-01T16:03:12;17.00;99.90
13320;DHT22;59599;47.608;12.190;2022-07-01T16:05:38;17.00;99.90
13320;DHT22;59599;47.608;12.190;2022-07-01T16:08:11;17.10;99.90
13320;DHT22;59599;47.608;12.190;2022-07-01T16:10:46;17.10;99.90
13320;DHT22;59599;47.608;12.190;2022-07-01T16:13:16;17.00;99.90
13320;DHT22;59599;47.608;12.190;2022-07-01T16:15:45;16.90;99.90
13320;DHT22;59599;47.608;12.190;2022-07-01T16:18:11;16.80;99.90
13320;DHT22;59599;47.608;12.190;2022-07-01T16:20:42;16.70;99.90
13320;DHT22;59599;47.608;12.190;2022-07-01T16:23:11;16.70;99.90
13320;DHT22;59599;47.608;12.190;2022-07-01T16:25:40;16.60;99.90
13320;DHT22;59599;47.608;12.190;2022-07-01T16:28:09;16.50;99.90
13320;DHT22;59599;47.608;12.190;2022-07-01T16:30:39;16.70;99.90
13320;DHT22;59599;47.608;12.190;2022-07-01T16:33:05;16.70;99.90
13320;DHT22;59599;47.608;12.190;2022-07-01T16:38:43;16.40;99.90
13320;DHT22;59599;47.608;12.190;2022-07-01T16:41:38;16.40;99.90
13320;DHT22;59599;47.608;12.190;2022-07-01T16:44:08;16.40;99.90
13320;DHT22;59599;47.608;12.190;2022-07-01T16:46:34;16.30;99.90
13320;DHT22;59599;47.608;12.190;2022-07-01T16:49:14;16.50;99.90
13320;DHT22;59599;47.608;12.190;2022-07-01T16:51:42;16.50;99.90
13320;DHT22;59599;47.608;12.190;2022-07-01T16:54:12;16.60;99.90
13320;DHT22;59599;47.608;12.190;2022-07-01T16:56:40;16.40;99.90
13320;DHT22;59599;47.608;12.190;2022-07-01T16:59:08;16.40;99.90
13320;DHT22;59599;47.608;12.190;2022-07-01T17:01:35;16.50;99.90
13320;DHT22;59599;47.608;12.190;2022-07-01T17:04:02;16.60;99.90
13320;DHT22;59599;47.608;12.190;2022-07-01T17:06:28;16.60;99.90
13320;DHT22;59599;47.608;12.190;2022-07-01T17:08:56;16.60;99.90
13320;DHT22;59599;47.608;12.190;2022-07-01T17:11:23;16.70;99.90
13320;DHT22;59599;47.608;12.190;2022-07-01T17:13:51;16.80;99.90
13320;DHT22;59599;47.608;12.190;2022-07-01T17:16:16;16.90;99.90
13320;DHT22;59599;47.608;12.190;2022-07-01T17:18:46;16.90;99.90
13320;DHT22;59599;47.608;12.190;2022-07-01T17:21:13;17.00;99.90
13320;DHT22;59599;47.608;12.190;2022-07-01T17:23:46;17.00;99.90
13320;DHT22;59599;47.608;12.190;2022-07-01T17:26:21;17.00;99.90
13320;DHT22;59599;47.608;12.190;2022-07-01T17:28:55;17.10;99.90
13320;DHT22;59599;47.608;12.190;2022-07-01T17:31:37;17.10;99.90
13320;DHT22;59599;47.608;12.190;2022-07-01T17:34:08;17.20;99.90
13320;DHT22;59599;47.608;12.190;2022-07-01T17:36:35;17.30;99.90
13320;DHT22;59599;47.608;12.190;2022-07-01T17:39:06;17.40;99.90
13320;DHT22;59599;47.608;12.190;2022-07-01T17:44:03;17.50;99.90
13320;DHT22;59599;47.608;12.190;2022-07-01T17:46:31;17.60;99.90
13320;DHT22;59599;47.608;12.190;2022-07-01T17:48:59;17.60;99.90
13320;DHT22;59599;47.608;12.190;2022-07-01T17:51:26;17.50;99.90
13320;DHT22;59599;47.608;12.190;2022-07-01T17:56:18;17.50;99.90
13320;DHT22;59599;47.608;12.190;2022-07-01T18:01:12;17.20;99.90
13320;DHT22;59599;47.608;12.190;2022-07-01T18:03:39;17.50;99.90
13320;DHT22;59599;47.608;12.190;2022-07-01T18:08:31;17.60;99.90
13320;DHT22;59599;47.608;12.190;2022-07-01T18:11:03;17.50;99.90
13320;DHT22;59599;47.608;12.190;2022-07-01T18:13:56;17.40;99.90
13320;DHT22;59599;47.608;12.190;2022-07-01T18:19:37;17.20;99.90
13320;DHT22;59599;47.608;12.190;2022-07-01T18:22:10;17.10;99.90
13320;DHT22;59599;47.608;12.190;2022-07-01T18:24:38;17.10;99.90
13320;DHT22;59599;47.608;12.190;2022-07-01T18:27:08;17.00;99.90
13320;DHT22;59599;47.608;12.190;2022-07-01T18:29:34;16.90;99.90
13320;DHT22;59599;47.608;12.190;2022-07-01T18:32:05;16.80;99.90
13320;DHT22;59599;47.608;12.190;2022-07-01T18:34:55;16.70;99.90
13320;DHT22;59599;47.608;12.190;2022-07-01T18:37:37;16.50;99.90
13320;DHT22;59599;47.608;12.190;2022-07-01T18:59:32;16.20;99.90
13320;DHT22;59599;47.608;12.190;2022-07-01T19:01:57;16.30;99.90
13320;DHT22;59599;47.608;12.190;2022-07-01T19:04:23;16.30;99.90
13320;DHT22;59599;47.608;12.190;2022-07-01T19:11:40;16.20;99.90
13320;DHT22;59599;47.608;12.190;2022-07-01T19:18:58;15.80;99.90
13320;DHT22;59599;47.608;12.190;2022-07-01T19:21:23;15.70;99.90
13320;DHT22;59599;47.608;12.190;2022-07-01T19:40:53;15.50;99.90
13320;DHT22;59599;47.608;12.190;2022-07-01T19:43:18;15.50;99.90
13320;DHT22;59599;47.608;12.190;2022-07-01T19:45:44;15.50;99.90
13320;DHT22;59599;47.608;12.190;2022-07-01T19:53:02;15.50;99.90
13320;DHT22;59599;47.608;12.190;2022-07-01T20:05:12;15.40;99.90
13320;DHT22;59599;47.608;12.190;2022-07-01T20:10:04;15.50;99.90
13320;DHT22;59599;47.608;12.190;2022-07-01T20:22:19;15.50;99.90
13320;DHT22;59599;47.608;12.190;2022-07-01T20:27:11;15.50;99.90
13320;DHT22;59599;47.608;12.190;2022-07-01T20:32:02;15.50;99.90
13320;DHT22;59599;47.608;12.190;2022-07-01T20:36:54;15.40;99.90
13320;DHT22;59599;47.608;12.190;2022-07-01T21:06:08;14.60;99.90
13320;DHT22;59599;47.608;12.190;2022-07-01T21:15:51;14.70;99.90
13320;DHT22;59599;47.608;12.190;2022-07-01T21:20:43;14.70;99.90
13320;DHT22;59599;47.608;12.190;2022-07-01T21:32:53;14.60;99.90
13320;DHT22;59599;47.608;12.190;2022-07-01T21:37:46;14.60;99.90
13320;DHT22;59599;47.608;12.190;2022-07-01T21:45:05;14.70;99.90
13320;DHT22;59599;47.608;12.190;2022-07-01T21:50:00;14.60;99.90
13320;DHT22;59599;47.608;12.190;2022-07-01T21:52:28;14.60;99.90
13320;DHT22;59599;47.608;12.190;2022-07-01T21:55:00;14.50;99.90
13320;DHT22;59599;47.608;12.190;2022-07-01T21:57:27;14.50;99.90
13320;DHT22;59599;47.608;12.190;2022-07-01T21:59:54;14.40;99.90
13320;DHT22;59599;47.608;12.190;2022-07-01T22:43:44;15.20;99.90
13320;DHT22;59599;47.608;12.190;2022-07-01T22:46:47;15.30;99.90
13320;DHT22;59599;47.608;12.190;2022-07-01T22:51:50;15.10;99.90
13320;DHT22;59599;47.608;12.190;2022-07-01T22:56:58;15.20;99.90
13320;DHT22;59599;47.608;12.190;2022-07-01T22:59:29;15.20;99.90
13320;DHT22;59599;47.608;12.190;2022-07-01T23:01:56;15.20;99.90
13320;DHT22;59599;47.608;12.190;2022-07-01T23:04:24;15.20;99.90
13320;DHT22;59599;47.608;12.190;2022-07-01T23:07:09;15.20;99.90
13320;DHT22;59599;47.608;12.190;2022-07-01T23:12:22;15.00;99.90
13320;DHT22;59599;47.608;12.190;2022-07-01T23:14:54;15.00;99.90
13320;DHT22;59599;47.608;12.190;2022-07-01T23:17:41;15.10;99.90
13320;DHT22;59599;47.608;12.190;2022-07-01T23:20:11;15.10;99.90
13320;DHT22;59599;47.608;12.190;2022-07-01T23:22:39;14.90;99.90
13320;DHT22;59599;47.608;12.190;2022-07-01T23:25:07;14.90;99.90
13320;DHT22;59599;47.608;12.190;2022-07-01T23:27:35;14.90;99.90
13320;DHT22;59599;47.608;12.190;2022-07-01T23:30:03;14.80;99.90
13320;DHT22;59599;47.608;12.190;2022-07-01T23:34:57;15.00;99.90
13320;DHT22;59599;47.608;12.190;2022-07-01T23:37:25;15.10;99.90
13320;DHT22;59599;47.608;12.190;2022-07-01T23:39:54;15.10;99.90
13320;DHT22;59599;47.608;12.190;2022-07-01T23:42:21;15.10;99.90
13320;DHT22;59599;47.608;12.190;2022-07-01T23:44:47;15.00;99.90
13320;DHT22;59599;47.608;12.190;2022-07-01T23:47:12;15.00;99.90
13320;DHT22;59599;47.608;12.190;2022-07-01T23:49:40;14.90;99.90
13320;DHT22;59599;47.608;12.190;2022-07-01T23:52:06;14.90;99.90
13320;DHT22;59599;47.608;12.190;2022-07-01T23:54:32;14.80;99.90
13320;DHT22;59599;47.608;12.190;2022-07-01T23:56:57;14.80;99.90
13320;DHT22;59599;47.608;12.190;2022-07-01T23:59:23;14.80;99.90
